Sammamish, WA

4:02 PM PST on March 01, 2015 (GMT -0800)
Snohomish County | Change Station
CLOSE
Current Station
Airport
Location: Everett,
Elevation: 604 ft
Nearby Weather Stations

Elev 604 ft 47.91 °N, 122.28 °W | Updated 9 minutes ago

Mostly Cloudy
Mostly Cloudy
48 °F
Feels Like 48 °F
N
5
Wind Variable Wind from West

Today
High -- | Low -- °F
--% Chance of Precip.
Yesterday
High -- | Low -- °F
Precip. -- in
6:48 AM 5:52 PM
Waxing Gibbous, 88% visible
Pressure 30.06 in
Visibility 10.0 miles
Clouds Overcast 10000 ft
Dew Point 29 °F
Humidity 48%
Rainfall 0.00 in
Snow Depth Not available.
UV 0 out of 12
Pollen 8.00 out of 12
Air Quality Not available.
Flu Activity Not available.
METAR KPAE 012353Z 27004KT 10SM OVC100 09/M02 A3004 RMK AO2 SLP177 T00891017 10100 20072 56026

More Conditions Fewer Conditions

Pressure 30.06 in
Visibility 10.0 miles
Clouds Overcast 10000 ft
Dew Point 29 °F
Humidity 48%
Rainfall 0.00 in
Snow Depth Not available.
UV 0 out of 12
Pollen 8.00 out of 12
Air Quality Not available.
Flu Activity Not available.
METAR KPAE 012353Z 27004KT 10SM OVC100 09/M02 A3004 RMK AO2 SLP177 T00891017 10100 20072 56026

More Conditions Fewer Conditions

10-Day Weather Forecast

Almanac

Astronomy

Mar. 01, 2015 Rise Set
Actual Time
Civil Twilight
Nautical Twilight
Astronomical Twilight
Moon
Length of Visible Light
Length of Day
Tomorrow will be .
, % of the Moon is Illuminated

Today's Extremes

State Highs State Lows

Community

WunderPhotos

Upload Photos

1,801,634 photos uploaded!

WunderBlogs® & News

Nearby

Air Quality

  Air Quality AQ Index Pollutant
Not available.

Snow Depth

Station Depth Elevation

Earthquake Activity

City Distance Mag. Time & Date
Minimum magnitude displayed is 2.5.

Coastal Water Temperatures

Place Temperature

Nearby Weather Stations